Wind From: 11-12-2017 06:00 Until: 12-12-2017 06:00 warning for: Wind Level: Orange info button

Power and phone distribution networks may be disrupted for relatively long periods., Roofs and chimneys can be damaged. , Tree branches may break. , Vehicles can be deported. , Traffic may be disrupted, particularly on secondary roads in forest areas. Limit your trips. , Limit your speed in highway driving, especially if you drive a vehicle or hitch sensitive to wind. , Do not go for walks in forests or along the coast., In town, be vigilant against possible falling objects., Do not work on roofs and do not touch any electrical line fallen on the ground., Store or secure sensitive objects to wind or likely to be damaged., Always install power generators outside buildings. 


Meteo18 Weather Cam more information Meteo18 Weather Cam


Thunder radar more information blitzortung!


Rain radar more information rain snow radar


Visit our other weather sites:

Template documentation
and downloads

And another site



Weather Underground History page Text

Daily Summary for August 26, 2017 Units:  English    Metric   Both
« Previous Day
Next Day »
Daily Weekly Monthly Yearly Custom
  High: Low: Average:
Temperature: 89.1 °F 61.9 °F 75.6 °F
Dew Point: 68.9 °F 60.1 °F 64.8 °F
Humidity: 95 % 44 % 72 %
Wind Speed: 6 mph 0 mph 1.2 mph
Wind Gust: 9 mph - -
Wind:- - SSE
Pressure: 30.1 in 30 in -
Precipitation: 0 in    
Historical Graphs
 
 
Tabular Data for August 26, 2017
Time Temperature Dew Point Pressure Wind Wind Speed Wind Gust Humidity Rainfall Rate (Hourly)
00:02 67.8 °F 64.2 °F 30 in Calm     88 % 0 in
00:12 67.6 °F 64.2 °F 30 in Calm     89 % 0 in
00:17 67.5 °F 64 °F 30 in Calm     89 % 0 in
00:22 67.3 °F 63.9 °F 30 in Calm     89 % 0 in
00:32 66.9 °F 63.5 °F 30 in Calm     89 % 0 in
00:42 66.9 °F 63.9 °F 30 in Calm     90 % 0 in
00:47 66.9 °F 63.5 °F 30 in Calm     89 % 0 in
00:52 67.1 °F 64 °F 30 in Calm     90 % 0 in
01:02 66.9 °F 63.5 °F 30 in Calm     89 % 0 in
01:12 67.1 °F 63.7 °F 30 in Calm     89 % 0 in
01:17 66.7 °F 63.3 °F 30 in Calm     89 % 0 in
01:22 66.6 °F 63.1 °F 30 in Calm     89 % 0 in
01:27 66.4 °F 63.3 °F 30 in Calm     90 % 0 in
01:32 66 °F 63.3 °F 30 in Calm     91 % 0 in
01:37 65.8 °F 63.1 °F 30 in Calm     91 % 0 in
01:42 65.7 °F 63 °F 30 in Calm     91 % 0 in
01:52 65.8 °F 63.5 °F 30 in Calm     92 % 0 in
01:57 65.8 °F 63.1 °F 30 in Calm     91 % 0 in
02:02 66 °F 63.3 °F 30 in Calm     91 % 0 in
02:12 65.8 °F 62.8 °F 30 in Calm     90 % 0 in
02:17 65.8 °F 62.8 °F 30 in Calm     90 % 0 in
02:22 65.8 °F 62.8 °F 30 in Calm     90 % 0 in
02:32 65.8 °F 62.8 °F 30 in Calm     90 % 0 in
02:37 65.7 °F 62.2 °F 30 in Calm     89 % 0 in
02:42 65.5 °F 62.2 °F 30 in Calm     89 % 0 in
02:52 64.9 °F 61.9 °F 30 in Calm     90 % 0 in
02:57 64.8 °F 61.7 °F 30 in Calm     90 % 0 in
03:02 64.8 °F 61.7 °F 30 in Calm     90 % 0 in
03:12 65.1 °F 62.4 °F 30 in Calm     91 % 0 in
03:17 65.3 °F 62.6 °F 30 in Calm     91 % 0 in
03:22 65.5 °F 62.8 °F 30 in Calm     91 % 0 in
03:27 65.5 °F 62.8 °F 30 in Calm     91 % 0 in
03:32 65.7 °F 62.6 °F 30 in Calm     90 % 0 in
03:37 65.7 °F 63 °F 30 in Calm     91 % 0 in
03:42 65.8 °F 63.1 °F 30 in Calm     91 % 0 in
03:52 66 °F 63 °F 30 in Calm     90 % 0 in
03:57 66 °F 63 °F 30 in Calm     90 % 0 in
04:02 66.2 °F 63.1 °F 30 in Calm     90 % 0 in
04:12 66 °F 63 °F 30 in Calm     90 % 0 in
04:17 66 °F 63 °F 30 in Calm     90 % 0 in
04:22 65.8 °F 62.8 °F 30 in Calm     90 % 0 in
04:32 65.5 °F 62.4 °F 30 in Calm     90 % 0 in
04:37 65.3 °F 62.6 °F 30 in Calm     91 % 0 in
04:42 65.3 °F 62.6 °F 30 in Calm     91 % 0 in
04:47 65.1 °F 62.4 °F 30 in Calm     91 % 0 in
05:02 64.6 °F 62.2 °F 30 in Calm     92 % 0 in
05:07 64.4 °F 62.1 °F 30 in Calm     92 % 0 in
05:12 64.2 °F 61.9 °F 30 in Calm     92 % 0 in
05:27 64.2 °F 62.2 °F 30 in Calm     93 % 0 in
05:32 64 °F 62.1 °F 30 in Calm     93 % 0 in
05:42 63.9 °F 61.9 °F 30 in Calm     93 % 0 in
05:52 63.5 °F 61.5 °F 30 in ENE 2 mph   93 % 0 in
05:57 63.5 °F 61.5 °F 30 in Calm   3 mph 93 % 0 in
06:02 63.1 °F 61.2 °F 30 in Calm   3 mph 93 % 0 in
06:07 63 °F 61 °F 30 in Calm   2 mph 93 % 0 in
06:12 62.8 °F 60.8 °F 30 in Calm   2 mph 93 % 0 in
06:22 62.2 °F 60.3 °F 30 in Calm   1 mph 93 % 0 in
06:32 62.2 °F 60.4 °F 30 in Calm     94 % 0 in
06:37 62.1 °F 60.3 °F 30 in WNW 2 mph   94 % 0 in
06:42 61.9 °F 60.1 °F 30 in Calm     94 % 0 in
06:47 62.2 °F 60.8 °F 30 in Calm     95 % 0 in
06:52 62.2 °F 60.8 °F 30 in Calm   2 mph 95 % 0 in
06:57 62.2 °F 60.8 °F 30 in Calm   2 mph 95 % 0 in
07:02 62.2 °F 60.8 °F 30 in Calm   1 mph 95 % 0 in
07:07 62.1 °F 60.6 °F 30.1 in Calm   1 mph 95 % 0 in
07:12 62.1 °F 60.6 °F 30 in Calm   1 mph 95 % 0 in
07:17 61.9 °F 60.4 °F 30 in Calm   1 mph 95 % 0 in
07:22 61.9 °F 60.4 °F 30.1 in Calm   1 mph 95 % 0 in
07:32 61.9 °F 60.4 °F 30.1 in Calm   1 mph 95 % 0 in
07:42 61.9 °F 60.4 °F 30.1 in Calm   1 mph 95 % 0 in
07:52 62.2 °F 60.8 °F 30.1 in Calm   1 mph 95 % 0 in
08:02 63.1 °F 61.7 °F 30.1 in Calm     95 % 0 in
08:07 63.7 °F 62.2 °F 30.1 in Calm   1 mph 95 % 0 in
08:12 64 °F 62.6 °F 30 in Calm   1 mph 95 % 0 in
08:17 64.4 °F 63 °F 30.1 in Calm   1 mph 95 % 0 in
08:22 64.8 °F 63 °F 30.1 in Calm   1 mph 94 % 0 in
08:32 65.5 °F 63.7 °F 30.1 in Calm   1 mph 94 % 0 in
08:37 66 °F 64.2 °F 30.1 in Calm     94 % 0 in
08:42 66.6 °F 64.4 °F 30.1 in Calm     93 % 0 in
08:47 67.3 °F 65.1 °F 30 in Calm     93 % 0 in
08:52 68 °F 65.3 °F 30 in Calm     91 % 0 in
09:02 69.1 °F 65.7 °F 30.1 in Calm     89 % 0 in
09:12 69.3 °F 65.3 °F 30 in Calm     87 % 0 in
09:17 69.4 °F 65.5 °F 30 in Calm     87 % 0 in
09:22 70.3 °F 66.2 °F 30 in Calm     87 % 0 in
09:32 71.4 °F 66.4 °F 30 in Calm     84 % 0 in
09:42 72.7 °F 66.6 °F 30 in Calm     81 % 0 in
09:47 73.2 °F 67.1 °F 30 in Calm     81 % 0 in
09:52 73.2 °F 66.4 °F 30 in Calm     79 % 0 in
09:57 73.8 °F 66.9 °F 30 in Calm   2 mph 79 % 0 in
10:02 73.9 °F 67.1 °F 30 in Calm   2 mph 79 % 0 in
10:12 75 °F 67.3 °F 30.1 in Calm   4 mph 77 % 0 in
10:17 75.6 °F 66.7 °F 30 in SE 1 mph 3 mph 74 % 0 in
10:22 75.6 °F 67.1 °F 30 in Calm   3 mph 75 % 0 in
10:32 76.3 °F 66.9 °F 30 in Calm   3 mph 73 % 0 in
10:37 76.3 °F 66.6 °F 30 in WSW 2 mph 2 mph 72 % 0 in
10:42 76.3 °F 66.9 °F 30 in SW 2 mph 2 mph 73 % 0 in
10:47 76.3 °F 66.9 °F 30 in SW 2 mph 3 mph 73 % 0 in
10:52 76.6 °F 67.3 °F 30 in SW 1 mph 3 mph 73 % 0 in
11:02 77.4 °F 67.6 °F 30 in ESE 1 mph 6 mph 72 % 0 in
11:07 78.3 °F 68 °F 30 in Calm   3 mph 71 % 0 in
11:12 79 °F 68.4 °F 30 in SSE 1 mph 3 mph 70 % 0 in
11:17 79.2 °F 67.3 °F 30 in SSW 4 mph 4 mph 67 % 0 in
11:22 79 °F 68 °F 30 in ESE 4 mph 4 mph 69 % 0 in
11:32 79.9 °F 68 °F 30 in SW 4 mph 6 mph 67 % 0 in
11:42 80.2 °F 67.8 °F 30 in SSW 3 mph 6 mph 66 % 0 in
11:47 80.4 °F 67.6 °F 30 in ESE 1 mph 5 mph 65 % 0 in
11:52 80.6 °F 67.3 °F 30 in SSW 4 mph 5 mph 64 % 0 in
12:02 80.6 °F 67.3 °F 30 in SSE 1 mph 5 mph 64 % 0 in
12:12 81.7 °F 67.5 °F 30 in Calm   7 mph 62 % 0 in
12:17 81.7 °F 68.4 °F 30 in SSW 3 mph 5 mph 64 % 0 in
12:22 82.2 °F 68.9 °F 30 in ENE 1 mph 5 mph 64 % 0 in
12:32 82.6 °F 68.7 °F 30 in South 5 mph 5 mph 63 % 0 in
12:42 82.4 °F 67.1 °F 30 in NNW 2 mph 6 mph 60 % 0 in
12:47 82.2 °F 67.5 °F 30 in ENE 2 mph 6 mph 61 % 0 in
12:57 82.8 °F 67.5 °F 30 in Calm   7 mph 60 % 0 in
13:02 84 °F 67.6 °F 30 in East 2 mph 7 mph 58 % 0 in
13:12 84.7 °F 67.3 °F 30 in SE 3 mph 7 mph 56 % 0 in
13:17 84.6 °F 67.1 °F 30 in East 2 mph 6 mph 56 % 0 in
13:22 84 °F 67.1 °F 30 in Calm   6 mph 57 % 0 in
13:32 84.9 °F 66.4 °F 30 in ENE 3 mph 6 mph 54 % 0 in
13:37 84.7 °F 67.3 °F 30 in SE 5 mph 6 mph 56 % 0 in
13:42 84 °F 66.6 °F 30 in ESE 3 mph 6 mph 56 % 0 in
13:52 84.6 °F 67.1 °F 30 in Calm   6 mph 56 % 0 in
13:57 84.7 °F 66.7 °F 30 in Calm   6 mph 55 % 0 in
14:02 85.1 °F 66.6 °F 30 in SE 4 mph 6 mph 54 % 0 in
14:12 85.8 °F 66.7 °F 30 in ESE 4 mph 4 mph 53 % 0 in
14:17 85.6 °F 66 °F 30 in SSE 1 mph 5 mph 52 % 0 in
14:22 85.5 °F 66.4 °F 30 in ESE 1 mph 5 mph 53 % 0 in
14:32 85.6 °F 66 °F 30 in NW 2 mph 5 mph 52 % 0 in
14:42 85.8 °F 66.2 °F 30 in North 1 mph 6 mph 52 % 0 in
14:47 86.4 °F 66 °F 30 in SSW 3 mph 6 mph 51 % 0 in
15:02 86.7 °F 66.4 °F 30 in South 1 mph 6 mph 51 % 0 in
15:12 87.1 °F 65.7 °F 30 in South 1 mph 9 mph 49 % 0 in
15:17 86.9 °F 65.5 °F 30 in WSW 2 mph 5 mph 49 % 0 in
15:22 87.3 °F 65.8 °F 30 in Calm   5 mph 49 % 0 in
15:27 87.4 °F 65.8 °F 30 in WSW 4 mph 5 mph 49 % 0 in
15:32 87.3 °F 65.8 °F 30 in NNW 3 mph 5 mph 49 % 0 in
15:37 87.3 °F 65.8 °F 30 in SE 1 mph 6 mph 49 % 0 in
15:42 87.3 °F 65.8 °F 30 in West 3 mph 6 mph 49 % 0 in
15:47 86.9 °F 64.8 °F 30 in SW 3 mph 7 mph 48 % 0 in
15:52 86.7 °F 65.3 °F 30 in North 2 mph 7 mph 49 % 0 in
15:57 86.7 °F 65.3 °F 30 in Calm   7 mph 49 % 0 in
16:02 86.7 °F 65.3 °F 30 in NNE 2 mph 7 mph 49 % 0 in
16:12 86.5 °F 64.6 °F 30 in ENE 2 mph 6 mph 48 % 0 in
16:17 86.5 °F 64.6 °F 30 in NE 2 mph 6 mph 48 % 0 in
16:22 87.1 °F 64.9 °F 30 in NNE 1 mph 6 mph 48 % 0 in
16:32 88.3 °F 64.9 °F 30 in SSE 2 mph 5 mph 46 % 0 in
16:37 88 °F 64.6 °F 30 in SE 1 mph 6 mph 46 % 0 in
16:42 88.2 °F 64.2 °F 30 in WSW 2 mph 6 mph 45 % 0 in
16:47 88.5 °F 64.4 °F 30 in SSW 1 mph 6 mph 45 % 0 in
16:52 88.5 °F 64.4 °F 30 in NNW 3 mph 6 mph 45 % 0 in
16:57 88.3 °F 64.2 °F 30 in Calm   4 mph 45 % 0 in
17:02 88.9 °F 64.8 °F 30 in SSW 2 mph 4 mph 45 % 0 in
17:12 89.1 °F 64.2 °F 30 in Calm   4 mph 44 % 0 in
17:17 88.9 °F 64.2 °F 30 in Calm   4 mph 44 % 0 in
17:22 89.1 °F 64.2 °F 30 in ENE 3 mph 4 mph 44 % 0 in
17:27 88.2 °F 63.5 °F 30 in ESE 1 mph 5 mph 44 % 0 in
17:32 88.2 °F 64.2 °F 30 in North 1 mph 5 mph 45 % 0 in
17:37 88.9 °F 64.8 °F 30 in WNW 1 mph 5 mph 45 % 0 in
17:42 89.1 °F 64.2 °F 30 in NNW 1 mph 5 mph 44 % 0 in
17:47 88.5 °F 64.4 °F 30 in NNE 3 mph 5 mph 45 % 0 in
17:52 88.2 °F 64.8 °F 30 in East 4 mph 5 mph 46 % 0 in
17:57 88 °F 65.3 °F 30 in ENE 4 mph 7 mph 47 % 0 in
18:02 87.8 °F 65.1 °F 30 in NE 3 mph 7 mph 47 % 0 in
18:12 87.6 °F 64.2 °F 30 in NE 4 mph 7 mph 46 % 0 in
18:17 87.4 °F 64.8 °F 30 in ENE 2 mph 6 mph 47 % 0 in
18:22 87.4 °F 64 °F 30 in NNE 3 mph 6 mph 46 % 0 in
18:32 87.3 °F 64 °F 30 in ENE 1 mph 6 mph 46 % 0 in
18:37 87.3 °F 64 °F 30 in NE 6 mph 6 mph 46 % 0 in
18:42 87.3 °F 64 °F 30 in ENE 2 mph 7 mph 46 % 0 in
18:47 87.1 °F 63.9 °F 30 in NE 2 mph 7 mph 46 % 0 in
18:57 86.7 °F 64 °F 30 in Calm   4 mph 47 % 0 in
19:02 86.5 °F 64.6 °F 30 in NNE 1 mph 4 mph 48 % 0 in
19:12 86.2 °F 64.2 °F 30 in NE 2 mph 5 mph 48 % 0 in
19:17 85.8 °F 64.4 °F 30 in NE 5 mph 6 mph 49 % 0 in
19:22 85.8 °F 64.4 °F 30 in NE 1 mph 6 mph 49 % 0 in
19:32 85.6 °F 64.2 °F 30 in NNE 1 mph 6 mph 49 % 0 in
19:37 85.6 °F 64.2 °F 30 in NE 3 mph 5 mph 49 % 0 in
19:42 85.5 °F 64.8 °F 30 in NE 1 mph 5 mph 50 % 0 in
19:47 85.5 °F 65.3 °F 30 in Calm   4 mph 51 % 0 in
19:52 85.5 °F 65.3 °F 30 in Calm   4 mph 51 % 0 in
20:02 84.7 °F 65.7 °F 30 in NE 1 mph 3 mph 53 % 0 in
20:07 84.4 °F 65.8 °F 30 in NNE 1 mph 2 mph 54 % 0 in
20:12 83.7 °F 65.8 °F 30 in NNE 5 mph 5 mph 55 % 0 in
20:17 83.1 °F 66.4 °F 30 in NNW 3 mph 7 mph 57 % 0 in
20:22 82.8 °F 66.9 °F 30 in NNE 2 mph 7 mph 59 % 0 in
20:32 81.7 °F 67.5 °F 30 in NE 2 mph 7 mph 62 % 0 in
20:42 81 °F 67.1 °F 30 in NNW 4 mph 6 mph 63 % 0 in
20:52 80.4 °F 67.1 °F 30 in NNE 3 mph 7 mph 64 % 0 in
20:57 80.1 °F 67.3 °F 30 in North 4 mph 6 mph 65 % 0 in
21:02 79.9 °F 67.5 °F 30 in North 1 mph 6 mph 66 % 0 in
21:12 79.2 °F 67.3 °F 30 in NNW 2 mph 4 mph 67 % 0 in
21:17 78.6 °F 67.1 °F 30 in Calm   4 mph 68 % 0 in
21:22 78.4 °F 66.9 °F 30 in NW 2 mph 4 mph 68 % 0 in
21:32 78.1 °F 67.1 °F 30 in NW 1 mph 3 mph 69 % 0 in
21:42 77.7 °F 66.7 °F 30 in NW 1 mph 3 mph 69 % 0 in
21:47 77.5 °F 66.9 °F 30 in North 5 mph 5 mph 70 % 0 in
21:52 77.5 °F 66.9 °F 30 in North 5 mph 5 mph 70 % 0 in
22:02 77.4 °F 66.7 °F 30 in NNW 2 mph 6 mph 70 % 0 in
22:12 76.8 °F 66.7 °F 30 in NNE 1 mph 6 mph 71 % 0 in
22:22 76.5 °F 66.7 °F 30 in North 1 mph 5 mph 72 % 0 in
22:27 76.3 °F 66.9 °F 30 in North 3 mph 7 mph 73 % 0 in
22:32 76.3 °F 66.9 °F 30 in North 4 mph 7 mph 73 % 0 in
22:37 76.1 °F 66.7 °F 30 in North 3 mph 7 mph 73 % 0 in
22:42 75.9 °F 66.6 °F 30 in NNE 3 mph 7 mph 73 % 0 in
22:47 75.9 °F 66.6 °F 30 in NE 4 mph 7 mph 73 % 0 in
22:57 75.7 °F 66.9 °F 30 in Calm   7 mph 74 % 0 in
23:02 75.6 °F 66.7 °F 30 in NNW 2 mph 7 mph 74 % 0 in
23:07 75.4 °F 66.6 °F 30 in NNW 3 mph 6 mph 74 % 0 in
23:12 75.2 °F 66.7 °F 30 in NNW 2 mph 6 mph 75 % 0 in
23:17 75 °F 66.6 °F 30 in NNW 3 mph 6 mph 75 % 0 in
23:22 74.8 °F 66.4 °F 30 in North 3 mph 6 mph 75 % 0 in
23:32 74.7 °F 66.6 °F 30 in North 2 mph 6 mph 76 % 0 in
23:37 74.5 °F 66.4 °F 30 in North 4 mph 6 mph 76 % 0 in
23:42 74.3 °F 66.2 °F 30 in North 3 mph 6 mph 76 % 0 in
23:47 74.5 °F 66.4 °F 30 in NNW 1 mph 5 mph 76 % 0 in
23:52 74.3 °F 66.2 °F 30 in North 4 mph 5 mph 76 % 0 in
Meteo18
Compliments of Weather Underground - 4 mb

Script developed by  Jim McMurry - jmcmurry@mwt.net Adapted for the template by  Wim van der Kuil - Leuven-Template.eu

You find our weather info also at:

European Weather Network

Weather Underground

Equipment we use:

Weather-station
Davis Vue

Weather-program
Meteohub

Weather-server
Raspberry PI 2 B+

Provider
1 and 1

Davis Vue

Meteohub

Raspberry PI 2 B+

1 and 1